sensor_id;sensor_type;location;lat;lon;timestamp;P1;durP1;ratioP1;P2;durP2;ratioP2
795;SDS011;381;48.770;9.188;2023-02-28T00:03:00;4.63;;;4.33;;
795;SDS011;381;48.770;9.188;2023-02-28T00:08:03;4.30;;;4.00;;
795;SDS011;381;48.770;9.188;2023-02-28T00:13:06;4.30;;;4.00;;
795;SDS011;381;48.770;9.188;2023-02-28T00:18:08;4.37;;;4.07;;
795;SDS011;381;48.770;9.188;2023-02-28T00:23:11;4.60;;;4.20;;
795;SDS011;381;48.770;9.188;2023-02-28T00:28:13;4.10;;;3.80;;
795;SDS011;381;48.770;9.188;2023-02-28T00:33:15;4.10;;;3.80;;
795;SDS011;381;48.770;9.188;2023-02-28T00:38:19;4.63;;;4.23;;
795;SDS011;381;48.770;9.188;2023-02-28T00:43:21;5.80;;;4.57;;
795;SDS011;381;48.770;9.188;2023-02-28T00:48:23;4.80;;;4.30;;
795;SDS011;381;48.770;9.188;2023-02-28T00:53:26;4.30;;;3.83;;
795;SDS011;381;48.770;9.188;2023-02-28T00:58:31;5.63;;;4.20;;
795;SDS011;381;48.770;9.188;2023-02-28T01:03:33;4.47;;;4.00;;
795;SDS011;381;48.770;9.188;2023-02-28T01:08:37;4.10;;;3.80;;
795;SDS011;381;48.770;9.188;2023-02-28T01:13:39;4.13;;;3.83;;
795;SDS011;381;48.770;9.188;2023-02-28T01:18:41;4.27;;;3.87;;
795;SDS011;381;48.770;9.188;2023-02-28T01:23:45;4.20;;;3.80;;
795;SDS011;381;48.770;9.188;2023-02-28T01:28:48;3.73;;;3.53;;
795;SDS011;381;48.770;9.188;2023-02-28T01:33:51;4.87;;;4.50;;
795;SDS011;381;48.770;9.188;2023-02-28T01:38:55;4.20;;;3.90;;
795;SDS011;381;48.770;9.188;2023-02-28T01:44:02;4.40;;;4.10;;
795;SDS011;381;48.770;9.188;2023-02-28T01:49:07;4.33;;;3.93;;
795;SDS011;381;48.770;9.188;2023-02-28T01:54:14;4.33;;;4.03;;
795;SDS011;381;48.770;9.188;2023-02-28T01:59:22;4.50;;;4.20;;
795;SDS011;381;48.770;9.188;2023-02-28T02:04:32;4.60;;;4.20;;
795;SDS011;381;48.770;9.188;2023-02-28T02:09:40;4.70;;;4.33;;
795;SDS011;381;48.770;9.188;2023-02-28T02:14:48;5.07;;;4.27;;
795;SDS011;381;48.770;9.188;2023-02-28T02:25:41;4.80;;;4.40;;
795;SDS011;381;48.770;9.188;2023-02-28T02:42:00;5.60;;;5.10;;
795;SDS011;381;48.770;9.188;2023-02-28T02:47:10;5.53;;;5.03;;
795;SDS011;381;48.770;9.188;2023-02-28T02:52:20;5.43;;;5.03;;
795;SDS011;381;48.770;9.188;2023-02-28T02:57:27;5.10;;;4.70;;
795;SDS011;381;48.770;9.188;2023-02-28T03:02:39;6.70;;;6.10;;
795;SDS011;381;48.770;9.188;2023-02-28T03:07:44;6.07;;;5.53;;
795;SDS011;381;48.770;9.188;2023-02-28T03:12:49;6.33;;;5.73;;
795;SDS011;381;48.770;9.188;2023-02-28T03:18:02;6.00;;;5.47;;
795;SDS011;381;48.770;9.188;2023-02-28T03:23:13;5.77;;;5.27;;
795;SDS011;381;48.770;9.188;2023-02-28T03:28:22;6.30;;;5.70;;
795;SDS011;381;48.770;9.188;2023-02-28T03:33:35;6.87;;;5.53;;
795;SDS011;381;48.770;9.188;2023-02-28T03:38:43;5.70;;;5.30;;
795;SDS011;381;48.770;9.188;2023-02-28T03:43:49;6.37;;;5.87;;
795;SDS011;381;48.770;9.188;2023-02-28T03:48:55;5.70;;;5.30;;
795;SDS011;381;48.770;9.188;2023-02-28T03:54:05;5.70;;;5.30;;
795;SDS011;381;48.770;9.188;2023-02-28T03:59:12;5.90;;;5.50;;
795;SDS011;381;48.770;9.188;2023-02-28T04:04:17;6.70;;;6.10;;
795;SDS011;381;48.770;9.188;2023-02-28T04:09:21;6.10;;;5.60;;
795;SDS011;381;48.770;9.188;2023-02-28T04:14:24;7.70;;;7.00;;
795;SDS011;381;48.770;9.188;2023-02-28T04:19:26;6.70;;;6.20;;
795;SDS011;381;48.770;9.188;2023-02-28T04:24:29;7.03;;;6.53;;
795;SDS011;381;48.770;9.188;2023-02-28T04:29:31;6.40;;;5.90;;
795;SDS011;381;48.770;9.188;2023-02-28T04:34:33;7.23;;;6.53;;
795;SDS011;381;48.770;9.188;2023-02-28T04:39:37;6.90;;;6.30;;
795;SDS011;381;48.770;9.188;2023-02-28T04:44:39;7.13;;;6.57;;
795;SDS011;381;48.770;9.188;2023-02-28T04:49:41;7.03;;;6.47;;
795;SDS011;381;48.770;9.188;2023-02-28T04:54:45;7.43;;;6.67;;
795;SDS011;381;48.770;9.188;2023-02-28T04:59:47;6.23;;;5.73;;
795;SDS011;381;48.770;9.188;2023-02-28T05:04:49;7.20;;;6.60;;
795;SDS011;381;48.770;9.188;2023-02-28T05:09:52;7.30;;;6.67;;
795;SDS011;381;48.770;9.188;2023-02-28T05:14:57;6.30;;;5.90;;
795;SDS011;381;48.770;9.188;2023-02-28T05:20:01;8.13;;;7.33;;
795;SDS011;381;48.770;9.188;2023-02-28T05:25:08;7.93;;;6.80;;
795;SDS011;381;48.770;9.188;2023-02-28T05:30:12;7.33;;;6.63;;
795;SDS011;381;48.770;9.188;2023-02-28T05:35:14;7.77;;;7.17;;
795;SDS011;381;48.770;9.188;2023-02-28T05:40:18;7.93;;;7.10;;
795;SDS011;381;48.770;9.188;2023-02-28T05:45:20;9.10;;;7.93;;
795;SDS011;381;48.770;9.188;2023-02-28T05:50:23;7.30;;;6.67;;
795;SDS011;381;48.770;9.188;2023-02-28T05:55:27;7.77;;;7.10;;
795;SDS011;381;48.770;9.188;2023-02-28T06:00:29;9.00;;;8.30;;
795;SDS011;381;48.770;9.188;2023-02-28T06:05:31;7.77;;;7.07;;
795;SDS011;381;48.770;9.188;2023-02-28T06:10:34;8.17;;;7.57;;
795;SDS011;381;48.770;9.188;2023-02-28T06:15:37;8.13;;;7.40;;
795;SDS011;381;48.770;9.188;2023-02-28T06:20:39;8.03;;;7.33;;
795;SDS011;381;48.770;9.188;2023-02-28T06:25:45;8.20;;;7.50;;
795;SDS011;381;48.770;9.188;2023-02-28T06:30:48;7.80;;;7.17;;
795;SDS011;381;48.770;9.188;2023-02-28T06:35:50;12.00;;;8.50;;
795;SDS011;381;48.770;9.188;2023-02-28T06:40:54;9.13;;;8.23;;
795;SDS011;381;48.770;9.188;2023-02-28T06:45:59;8.30;;;7.60;;
795;SDS011;381;48.770;9.188;2023-02-28T06:51:03;8.83;;;7.93;;
795;SDS011;381;48.770;9.188;2023-02-28T06:56:09;8.50;;;7.77;;
795;SDS011;381;48.770;9.188;2023-02-28T07:01:13;9.63;;;8.17;;
795;SDS011;381;48.770;9.188;2023-02-28T07:06:15;9.20;;;8.30;;
795;SDS011;381;48.770;9.188;2023-02-28T07:11:19;8.80;;;8.10;;
795;SDS011;381;48.770;9.188;2023-02-28T07:16:23;8.53;;;7.73;;
795;SDS011;381;48.770;9.188;2023-02-28T07:21:25;11.23;;;10.13;;
795;SDS011;381;48.770;9.188;2023-02-28T07:26:29;9.20;;;8.40;;
795;SDS011;381;48.770;9.188;2023-02-28T07:31:31;10.00;;;9.10;;
795;SDS011;381;48.770;9.188;2023-02-28T07:36:33;10.47;;;9.47;;
795;SDS011;381;48.770;9.188;2023-02-28T07:41:36;10.50;;;9.60;;
795;SDS011;381;48.770;9.188;2023-02-28T07:46:43;10.63;;;9.63;;
795;SDS011;381;48.770;9.188;2023-02-28T07:51:45;10.07;;;9.27;;
795;SDS011;381;48.770;9.188;2023-02-28T07:56:48;10.53;;;9.53;;
795;SDS011;381;48.770;9.188;2023-02-28T08:01:51;11.33;;;10.23;;
795;SDS011;381;48.770;9.188;2023-02-28T08:06:53;11.67;;;10.57;;
795;SDS011;381;48.770;9.188;2023-02-28T08:11:57;10.50;;;9.50;;
795;SDS011;381;48.770;9.188;2023-02-28T08:17:00;11.17;;;10.07;;
795;SDS011;381;48.770;9.188;2023-02-28T08:22:02;11.20;;;10.00;;
795;SDS011;381;48.770;9.188;2023-02-28T08:27:05;10.43;;;9.43;;
795;SDS011;381;48.770;9.188;2023-02-28T08:32:08;11.07;;;10.17;;
795;SDS011;381;48.770;9.188;2023-02-28T08:37:10;12.00;;;9.77;;
795;SDS011;381;48.770;9.188;2023-02-28T08:42:13;11.03;;;9.87;;
795;SDS011;381;48.770;9.188;2023-02-28T08:47:17;11.57;;;10.47;;
795;SDS011;381;48.770;9.188;2023-02-28T08:52:19;11.47;;;10.37;;
795;SDS011;381;48.770;9.188;2023-02-28T08:57:22;11.90;;;10.70;;
795;SDS011;381;48.770;9.188;2023-02-28T09:02:26;11.83;;;10.70;;
795;SDS011;381;48.770;9.188;2023-02-28T09:07:28;11.73;;;10.63;;
795;SDS011;381;48.770;9.188;2023-02-28T09:12:33;11.57;;;10.57;;
795;SDS011;381;48.770;9.188;2023-02-28T09:17:36;12.27;;;11.07;;
795;SDS011;381;48.770;9.188;2023-02-28T09:22:38;11.30;;;10.10;;
795;SDS011;381;48.770;9.188;2023-02-28T09:27:41;11.80;;;10.70;;
795;SDS011;381;48.770;9.188;2023-02-28T09:32:43;11.63;;;10.30;;
795;SDS011;381;48.770;9.188;2023-02-28T09:37:52;11.37;;;10.27;;
795;SDS011;381;48.770;9.188;2023-02-28T09:42:55;11.50;;;10.40;;
795;SDS011;381;48.770;9.188;2023-02-28T09:48:01;13.73;;;11.80;;
795;SDS011;381;48.770;9.188;2023-02-28T09:53:11;11.97;;;10.87;;
795;SDS011;381;48.770;9.188;2023-02-28T09:58:23;14.27;;;12.90;;
795;SDS011;381;48.770;9.188;2023-02-28T10:03:32;11.47;;;10.43;;
795;SDS011;381;48.770;9.188;2023-02-28T10:08:41;12.20;;;11.10;;
795;SDS011;381;48.770;9.188;2023-02-28T10:13:53;12.53;;;11.40;;
795;SDS011;381;48.770;9.188;2023-02-28T10:19:05;11.37;;;10.33;;
795;SDS011;381;48.770;9.188;2023-02-28T10:24:16;11.50;;;10.40;;
795;SDS011;381;48.770;9.188;2023-02-28T10:29:26;12.07;;;11.00;;
795;SDS011;381;48.770;9.188;2023-02-28T10:34:28;11.63;;;10.60;;
795;SDS011;381;48.770;9.188;2023-02-28T10:39:34;13.40;;;12.20;;
795;SDS011;381;48.770;9.188;2023-02-28T10:44:42;12.27;;;11.07;;
795;SDS011;381;48.770;9.188;2023-02-28T10:49:47;12.97;;;11.60;;
795;SDS011;381;48.770;9.188;2023-02-28T10:54:50;13.63;;;12.23;;
795;SDS011;381;48.770;9.188;2023-02-28T11:00:19;12.77;;;11.67;;
795;SDS011;381;48.770;9.188;2023-02-28T11:05:24;14.47;;;12.97;;
795;SDS011;381;48.770;9.188;2023-02-28T11:10:28;13.70;;;12.50;;
795;SDS011;381;48.770;9.188;2023-02-28T11:15:36;14.37;;;12.87;;
795;SDS011;381;48.770;9.188;2023-02-28T11:20:38;12.80;;;11.50;;
795;SDS011;381;48.770;9.188;2023-02-28T11:25:41;13.13;;;11.80;;
795;SDS011;381;48.770;9.188;2023-02-28T11:30:59;13.10;;;11.90;;
795;SDS011;381;48.770;9.188;2023-02-28T11:36:03;14.73;;;13.30;;
795;SDS011;381;48.770;9.188;2023-02-28T11:41:15;12.93;;;11.57;;
795;SDS011;381;48.770;9.188;2023-02-28T11:46:30;13.07;;;11.77;;
795;SDS011;381;48.770;9.188;2023-02-28T11:51:41;12.63;;;11.43;;
795;SDS011;381;48.770;9.188;2023-02-28T11:56:49;12.80;;;11.70;;
795;SDS011;381;48.770;9.188;2023-02-28T12:02:04;12.83;;;11.50;;
795;SDS011;381;48.770;9.188;2023-02-28T12:07:23;14.23;;;12.93;;
795;SDS011;381;48.770;9.188;2023-02-28T12:12:37;14.53;;;13.17;;
795;SDS011;381;48.770;9.188;2023-02-28T12:17:50;13.13;;;12.03;;
795;SDS011;381;48.770;9.188;2023-02-28T12:23:02;12.63;;;11.53;;
795;SDS011;381;48.770;9.188;2023-02-28T12:28:17;11.97;;;10.77;;
795;SDS011;381;48.770;9.188;2023-02-28T12:33:27;12.70;;;11.40;;
795;SDS011;381;48.770;9.188;2023-02-28T12:38:34;13.20;;;11.90;;
795;SDS011;381;48.770;9.188;2023-02-28T12:43:41;12.67;;;11.57;;
795;SDS011;381;48.770;9.188;2023-02-28T12:48:48;11.97;;;10.97;;
795;SDS011;381;48.770;9.188;2023-02-28T12:53:56;12.50;;;11.47;;
795;SDS011;381;48.770;9.188;2023-02-28T12:59:05;14.07;;;12.67;;
795;SDS011;381;48.770;9.188;2023-02-28T13:04:29;12.63;;;11.43;;
795;SDS011;381;48.770;9.188;2023-02-28T13:09:44;12.70;;;11.70;;
795;SDS011;381;48.770;9.188;2023-02-28T13:15:01;11.40;;;10.47;;
795;SDS011;381;48.770;9.188;2023-02-28T13:20:17;12.93;;;11.83;;
795;SDS011;381;48.770;9.188;2023-02-28T13:31:04;11.70;;;10.60;;
795;SDS011;381;48.770;9.188;2023-02-28T13:36:21;12.63;;;11.43;;
795;SDS011;381;48.770;9.188;2023-02-28T13:41:42;11.77;;;10.73;;
795;SDS011;381;48.770;9.188;2023-02-28T13:52:30;13.63;;;12.20;;
795;SDS011;381;48.770;9.188;2023-02-28T13:57:39;11.83;;;10.80;;
795;SDS011;381;48.770;9.188;2023-02-28T14:03:07;12.83;;;11.50;;
795;SDS011;381;48.770;9.188;2023-02-28T14:08:24;12.10;;;11.00;;
795;SDS011;381;48.770;9.188;2023-02-28T14:13:37;14.43;;;13.03;;
795;SDS011;381;48.770;9.188;2023-02-28T14:18:47;12.10;;;11.00;;
795;SDS011;381;48.770;9.188;2023-02-28T14:29:29;12.23;;;10.73;;
795;SDS011;381;48.770;9.188;2023-02-28T14:34:41;12.03;;;11.03;;
795;SDS011;381;48.770;9.188;2023-02-28T14:39:53;12.07;;;11.03;;
795;SDS011;381;48.770;9.188;2023-02-28T14:44:59;11.23;;;10.23;;
795;SDS011;381;48.770;9.188;2023-02-28T14:50:02;13.80;;;10.83;;
795;SDS011;381;48.770;9.188;2023-02-28T14:55:12;12.80;;;11.70;;
795;SDS011;381;48.770;9.188;2023-02-28T15:00:16;11.67;;;10.57;;
795;SDS011;381;48.770;9.188;2023-02-28T15:05:25;12.30;;;11.20;;
795;SDS011;381;48.770;9.188;2023-02-28T15:10:31;12.53;;;11.27;;
795;SDS011;381;48.770;9.188;2023-02-28T15:15:38;12.00;;;10.90;;
795;SDS011;381;48.770;9.188;2023-02-28T15:20:44;11.30;;;10.30;;
795;SDS011;381;48.770;9.188;2023-02-28T15:25:48;12.20;;;11.03;;
795;SDS011;381;48.770;9.188;2023-02-28T15:30:53;13.10;;;11.70;;
795;SDS011;381;48.770;9.188;2023-02-28T15:36:12;12.20;;;11.00;;
795;SDS011;381;48.770;9.188;2023-02-28T15:41:25;13.37;;;12.00;;
795;SDS011;381;48.770;9.188;2023-02-28T15:46:28;12.00;;;10.90;;
795;SDS011;381;48.770;9.188;2023-02-28T15:51:32;11.93;;;10.73;;
795;SDS011;381;48.770;9.188;2023-02-28T15:56:39;12.83;;;11.67;;
795;SDS011;381;48.770;9.188;2023-02-28T16:01:45;12.40;;;11.40;;
795;SDS011;381;48.770;9.188;2023-02-28T16:06:53;11.83;;;10.63;;
795;SDS011;381;48.770;9.188;2023-02-28T16:12:05;11.47;;;10.37;;
795;SDS011;381;48.770;9.188;2023-02-28T16:17:16;12.20;;;11.10;;
795;SDS011;381;48.770;9.188;2023-02-28T16:22:21;12.10;;;11.10;;
795;SDS011;381;48.770;9.188;2023-02-28T16:27:28;13.40;;;12.13;;
795;SDS011;381;48.770;9.188;2023-02-28T16:32:34;12.70;;;11.50;;
795;SDS011;381;48.770;9.188;2023-02-28T16:37:37;12.67;;;11.47;;
795;SDS011;381;48.770;9.188;2023-02-28T16:42:40;17.97;;;16.23;;
795;SDS011;381;48.770;9.188;2023-02-28T16:47:43;13.93;;;12.53;;
795;SDS011;381;48.770;9.188;2023-02-28T16:52:45;12.50;;;11.40;;
795;SDS011;381;48.770;9.188;2023-02-28T16:57:51;12.90;;;11.60;;
795;SDS011;381;48.770;9.188;2023-02-28T17:02:55;15.30;;;13.40;;
795;SDS011;381;48.770;9.188;2023-02-28T17:07:59;17.60;;;12.23;;
795;SDS011;381;48.770;9.188;2023-02-28T17:13:11;12.60;;;11.40;;
795;SDS011;381;48.770;9.188;2023-02-28T17:18:14;13.57;;;12.20;;
795;SDS011;381;48.770;9.188;2023-02-28T17:23:20;14.80;;;13.40;;
795;SDS011;381;48.770;9.188;2023-02-28T17:28:25;17.63;;;14.70;;
795;SDS011;381;48.770;9.188;2023-02-28T17:33:30;13.30;;;12.00;;
795;SDS011;381;48.770;9.188;2023-02-28T17:38:32;14.60;;;13.13;;
795;SDS011;381;48.770;9.188;2023-02-28T17:43:36;15.03;;;13.53;;
795;SDS011;381;48.770;9.188;2023-02-28T17:48:38;16.10;;;14.47;;
795;SDS011;381;48.770;9.188;2023-02-28T17:53:40;14.63;;;13.23;;
795;SDS011;381;48.770;9.188;2023-02-28T17:58:43;15.03;;;13.43;;
795;SDS011;381;48.770;9.188;2023-02-28T18:03:45;15.33;;;13.87;;
795;SDS011;381;48.770;9.188;2023-02-28T18:08:48;16.57;;;14.90;;
795;SDS011;381;48.770;9.188;2023-02-28T18:13:53;20.30;;;18.20;;
795;SDS011;381;48.770;9.188;2023-02-28T18:18:56;18.87;;;17.17;;
795;SDS011;381;48.770;9.188;2023-02-28T18:23:58;18.97;;;17.17;;
795;SDS011;381;48.770;9.188;2023-02-28T18:29:01;18.30;;;16.33;;
795;SDS011;381;48.770;9.188;2023-02-28T18:34:06;25.63;;;22.97;;
795;SDS011;381;48.770;9.188;2023-02-28T18:39:11;16.87;;;15.17;;
795;SDS011;381;48.770;9.188;2023-02-28T18:44:15;18.40;;;16.57;;
795;SDS011;381;48.770;9.188;2023-02-28T18:49:17;18.70;;;15.97;;
795;SDS011;381;48.770;9.188;2023-02-28T18:54:20;20.50;;;18.40;;
795;SDS011;381;48.770;9.188;2023-02-28T18:59:24;24.47;;;20.80;;
795;SDS011;381;48.770;9.188;2023-02-28T19:04:27;16.00;;;14.30;;
795;SDS011;381;48.770;9.188;2023-02-28T19:09:36;18.60;;;15.97;;
795;SDS011;381;48.770;9.188;2023-02-28T19:14:39;17.93;;;16.13;;
795;SDS011;381;48.770;9.188;2023-02-28T19:19:41;17.90;;;16.07;;
795;SDS011;381;48.770;9.188;2023-02-28T19:24:43;17.77;;;15.97;;
795;SDS011;381;48.770;9.188;2023-02-28T19:29:47;19.27;;;17.27;;
795;SDS011;381;48.770;9.188;2023-02-28T19:34:51;25.50;;;22.80;;
795;SDS011;381;48.770;9.188;2023-02-28T19:39:56;19.20;;;17.40;;
795;SDS011;381;48.770;9.188;2023-02-28T19:45:04;20.27;;;18.33;;
795;SDS011;381;48.770;9.188;2023-02-28T19:50:09;19.43;;;17.33;;
795;SDS011;381;48.770;9.188;2023-02-28T19:55:12;19.77;;;17.50;;
795;SDS011;381;48.770;9.188;2023-02-28T20:00:17;18.93;;;16.40;;
795;SDS011;381;48.770;9.188;2023-02-28T20:05:23;18.47;;;16.53;;
795;SDS011;381;48.770;9.188;2023-02-28T20:10:26;16.33;;;14.73;;
795;SDS011;381;48.770;9.188;2023-02-28T20:15:29;19.33;;;16.33;;
795;SDS011;381;48.770;9.188;2023-02-28T20:20:32;19.13;;;17.20;;
795;SDS011;381;48.770;9.188;2023-02-28T20:25:37;21.50;;;18.27;;
795;SDS011;381;48.770;9.188;2023-02-28T20:30:41;20.37;;;18.30;;
795;SDS011;381;48.770;9.188;2023-02-28T20:35:44;20.00;;;17.97;;
795;SDS011;381;48.770;9.188;2023-02-28T20:40:48;20.50;;;18.50;;
795;SDS011;381;48.770;9.188;2023-02-28T20:45:56;22.03;;;19.23;;
795;SDS011;381;48.770;9.188;2023-02-28T20:51:01;18.80;;;16.80;;
795;SDS011;381;48.770;9.188;2023-02-28T20:56:05;23.53;;;19.53;;
795;SDS011;381;48.770;9.188;2023-02-28T21:01:12;21.50;;;19.20;;
795;SDS011;381;48.770;9.188;2023-02-28T21:06:16;22.50;;;19.90;;
795;SDS011;381;48.770;9.188;2023-02-28T21:11:21;21.60;;;19.30;;
795;SDS011;381;48.770;9.188;2023-02-28T21:16:26;20.13;;;18.27;;
795;SDS011;381;48.770;9.188;2023-02-28T21:21:30;20.80;;;18.50;;
795;SDS011;381;48.770;9.188;2023-02-28T21:26:33;22.03;;;19.67;;
795;SDS011;381;48.770;9.188;2023-02-28T21:31:36;21.97;;;19.67;;
795;SDS011;381;48.770;9.188;2023-02-28T21:36:39;21.20;;;18.90;;
795;SDS011;381;48.770;9.188;2023-02-28T21:41:44;19.50;;;17.60;;
795;SDS011;381;48.770;9.188;2023-02-28T21:46:49;20.37;;;18.47;;
795;SDS011;381;48.770;9.188;2023-02-28T21:51:54;20.23;;;18.13;;
795;SDS011;381;48.770;9.188;2023-02-28T21:56:56;19.97;;;17.80;;
795;SDS011;381;48.770;9.188;2023-02-28T22:02:00;21.20;;;19.20;;
795;SDS011;381;48.770;9.188;2023-02-28T22:07:04;21.87;;;19.57;;
795;SDS011;381;48.770;9.188;2023-02-28T22:12:06;20.63;;;18.47;;
795;SDS011;381;48.770;9.188;2023-02-28T22:17:10;26.20;;;23.70;;
795;SDS011;381;48.770;9.188;2023-02-28T22:22:12;19.83;;;17.93;;
795;SDS011;381;48.770;9.188;2023-02-28T22:27:17;19.50;;;17.57;;
795;SDS011;381;48.770;9.188;2023-02-28T22:32:21;18.83;;;16.93;;
795;SDS011;381;48.770;9.188;2023-02-28T22:37:23;18.80;;;16.90;;
795;SDS011;381;48.770;9.188;2023-02-28T22:42:27;19.57;;;17.50;;
795;SDS011;381;48.770;9.188;2023-02-28T22:47:34;21.20;;;19.00;;
795;SDS011;381;48.770;9.188;2023-02-28T22:52:38;18.20;;;16.40;;
795;SDS011;381;48.770;9.188;2023-02-28T22:57:40;19.90;;;17.90;;
795;SDS011;381;48.770;9.188;2023-02-28T23:02:44;20.03;;;18.03;;
795;SDS011;381;48.770;9.188;2023-02-28T23:07:46;19.57;;;17.53;;
795;SDS011;381;48.770;9.188;2023-02-28T23:12:48;19.07;;;17.17;;
795;SDS011;381;48.770;9.188;2023-02-28T23:17:52;19.20;;;17.27;;
795;SDS011;381;48.770;9.188;2023-02-28T23:22:54;17.60;;;15.90;;
795;SDS011;381;48.770;9.188;2023-02-28T23:27:56;19.63;;;17.70;;
795;SDS011;381;48.770;9.188;2023-02-28T23:32:59;19.80;;;17.83;;
795;SDS011;381;48.770;9.188;2023-02-28T23:38:01;19.73;;;17.83;;
795;SDS011;381;48.770;9.188;2023-02-28T23:43:04;20.30;;;18.20;;
795;SDS011;381;48.770;9.188;2023-02-28T23:48:07;19.40;;;17.50;;
795;SDS011;381;48.770;9.188;2023-02-28T23:53:09;21.03;;;18.70;;
795;SDS011;381;48.770;9.188;2023-02-28T23:58:11;18.87;;;17.07;;
